sensor_id;sensor_type;location;lat;lon;timestamp;noise_LAeq;noise_LA_min;noise_LA_max;noise_LA01;noise_LA95
77729;Laerm;66894;51.570;7.000;2023-02-28T16:19:58;34.98;29.25;58.95;;
77729;Laerm;66894;51.570;7.000;2023-02-28T16:22:25;52.85;28.70;78.17;;
77729;Laerm;66894;51.570;7.000;2023-02-28T16:24:51;30.72;28.62;47.46;;
77729;Laerm;66894;51.570;7.000;2023-02-28T16:27:33;36.84;28.78;63.49;;
77729;Laerm;66894;51.570;7.000;2023-02-28T16:30:03;48.75;28.86;75.32;;
77729;Laerm;66894;51.570;7.000;2023-02-28T17:07:52;54.69;48.60;76.40;;
77729;Laerm;66894;51.570;7.000;2023-02-28T17:10:26;52.98;48.81;60.02;;
77729;Laerm;66894;51.570;7.000;2023-02-28T17:12:52;53.18;49.35;60.08;;
77729;Laerm;66894;51.570;7.000;2023-02-28T17:15:23;79.10;49.63;110.02;;
77729;Laerm;66894;51.570;7.000;2023-02-28T17:17:50;82.69;46.28;106.02;;
77729;Laerm;66894;51.570;7.000;2023-02-28T17:20:22;54.85;50.59;77.33;;
77729;Laerm;66894;51.570;7.000;2023-02-28T17:22:52;55.22;50.52;65.84;;
77729;Laerm;66894;51.570;7.000;2023-02-28T18:20:39;52.01;44.58;75.67;;
77729;Laerm;66894;51.570;7.000;2023-02-28T18:23:05;47.86;44.09;51.37;;
77729;Laerm;66894;51.570;7.000;2023-02-28T18:25:31;47.65;42.99;54.33;;
77729;Laerm;66894;51.570;7.000;2023-02-28T18:27:57;48.36;44.79;52.31;;
77729;Laerm;66894;51.570;7.000;2023-02-28T18:30:32;47.09;43.59;52.95;;
77729;Laerm;66894;51.570;7.000;2023-02-28T18:33:00;47.55;43.94;56.94;;
77729;Laerm;66894;51.570;7.000;2023-02-28T18:35:29;47.93;42.83;54.74;;
77729;Laerm;66894;51.570;7.000;2023-02-28T18:38:17;47.66;43.40;52.72;;
77729;Laerm;66894;51.570;7.000;2023-02-28T18:41:00;47.23;43.67;50.98;;
77729;Laerm;66894;51.570;7.000;2023-02-28T18:43:33;46.99;43.21;51.44;;
77729;Laerm;66894;51.570;7.000;2023-02-28T18:46:05;46.87;43.22;56.03;;
77729;Laerm;66894;51.570;7.000;2023-02-28T18:48:31;47.22;42.65;54.08;;
77729;Laerm;66894;51.570;7.000;2023-02-28T18:50:57;47.13;42.54;58.38;;
77729;Laerm;66894;51.570;7.000;2023-02-28T18:53:22;46.37;43.08;54.11;;
77729;Laerm;66894;51.570;7.000;2023-02-28T18:55:48;47.68;43.24;55.26;;
77729;Laerm;66894;51.570;7.000;2023-02-28T18:58:14;46.52;42.97;49.74;;
77729;Laerm;66894;51.570;7.000;2023-02-28T19:00:40;47.57;43.74;58.82;;
77729;Laerm;66894;51.570;7.000;2023-02-28T19:03:06;48.57;44.22;61.16;;
77729;Laerm;66894;51.570;7.000;2023-02-28T19:05:31;48.02;44.28;56.83;;
77729;Laerm;66894;51.570;7.000;2023-02-28T19:08:00;47.10;42.54;53.77;;
77729;Laerm;66894;51.570;7.000;2023-02-28T19:10:26;48.78;43.54;56.60;;
77729;Laerm;66894;51.570;7.000;2023-02-28T19:12:52;49.37;44.57;58.25;;
77729;Laerm;66894;51.570;7.000;2023-02-28T19:15:18;48.46;44.24;55.21;;
77729;Laerm;66894;51.570;7.000;2023-02-28T19:17:44;47.78;42.17;62.36;;
77729;Laerm;66894;51.570;7.000;2023-02-28T19:20:11;49.16;44.13;58.20;;
77729;Laerm;66894;51.570;7.000;2023-02-28T19:22:38;47.59;43.14;60.34;;
77729;Laerm;66894;51.570;7.000;2023-02-28T19:25:05;48.47;44.20;63.05;;
77729;Laerm;66894;51.570;7.000;2023-02-28T19:27:31;49.25;43.72;56.13;;
77729;Laerm;66894;51.570;7.000;2023-02-28T19:30:00;49.25;45.20;57.23;;
77729;Laerm;66894;51.570;7.000;2023-02-28T19:32:26;48.36;44.07;54.26;;
77729;Laerm;66894;51.570;7.000;2023-02-28T19:34:51;49.02;43.37;60.64;;
77729;Laerm;66894;51.570;7.000;2023-02-28T19:37:17;48.87;44.21;52.54;;
77729;Laerm;66894;51.570;7.000;2023-02-28T19:39:44;49.67;44.37;62.12;;
77729;Laerm;66894;51.570;7.000;2023-02-28T19:42:16;48.47;43.94;55.56;;
77729;Laerm;66894;51.570;7.000;2023-02-28T19:44:43;48.70;44.40;52.78;;
77729;Laerm;66894;51.570;7.000;2023-02-28T19:47:12;48.44;44.30;53.66;;
77729;Laerm;66894;51.570;7.000;2023-02-28T19:49:39;48.39;42.52;64.30;;
77729;Laerm;66894;51.570;7.000;2023-02-28T19:52:05;49.72;46.19;53.97;;
77729;Laerm;66894;51.570;7.000;2023-02-28T19:54:31;49.14;44.95;53.76;;
77729;Laerm;66894;51.570;7.000;2023-02-28T19:56:59;49.64;45.42;54.04;;
77729;Laerm;66894;51.570;7.000;2023-02-28T19:59:27;48.81;45.08;55.52;;
77729;Laerm;66894;51.570;7.000;2023-02-28T20:01:53;48.35;44.19;52.54;;
77729;Laerm;66894;51.570;7.000;2023-02-28T20:04:26;49.18;45.58;53.18;;
77729;Laerm;66894;51.570;7.000;2023-02-28T20:06:53;48.05;43.53;53.86;;
77729;Laerm;66894;51.570;7.000;2023-02-28T20:09:18;49.62;44.95;57.33;;
77729;Laerm;66894;51.570;7.000;2023-02-28T20:11:45;50.34;45.53;56.58;;
77729;Laerm;66894;51.570;7.000;2023-02-28T20:14:13;50.54;45.99;57.26;;
77729;Laerm;66894;51.570;7.000;2023-02-28T20:16:40;49.28;44.78;54.61;;
77729;Laerm;66894;51.570;7.000;2023-02-28T20:19:06;51.08;46.15;59.11;;
77729;Laerm;66894;51.570;7.000;2023-02-28T20:21:31;51.16;46.32;62.53;;
77729;Laerm;66894;51.570;7.000;2023-02-28T20:23:57;51.69;47.76;56.65;;
77729;Laerm;66894;51.570;7.000;2023-02-28T20:26:22;52.02;47.35;61.43;;
77729;Laerm;66894;51.570;7.000;2023-02-28T20:28:48;52.04;46.78;56.34;;
77729;Laerm;66894;51.570;7.000;2023-02-28T20:31:21;51.09;47.25;56.65;;
77729;Laerm;66894;51.570;7.000;2023-02-28T20:33:50;50.71;46.01;58.86;;
77729;Laerm;66894;51.570;7.000;2023-02-28T20:36:18;50.54;46.05;58.64;;
77729;Laerm;66894;51.570;7.000;2023-02-28T20:38:50;50.56;46.60;57.68;;
77729;Laerm;66894;51.570;7.000;2023-02-28T20:41:16;49.78;45.48;55.80;;
77729;Laerm;66894;51.570;7.000;2023-02-28T20:43:42;49.46;45.28;55.38;;
77729;Laerm;66894;51.570;7.000;2023-02-28T20:46:08;47.42;43.36;55.88;;
77729;Laerm;66894;51.570;7.000;2023-02-28T20:48:35;45.98;41.87;55.21;;
77729;Laerm;66894;51.570;7.000;2023-02-28T20:51:03;47.95;42.47;59.16;;
77729;Laerm;66894;51.570;7.000;2023-02-28T20:53:32;46.74;41.79;54.40;;
77729;Laerm;66894;51.570;7.000;2023-02-28T20:56:02;44.85;41.72;50.17;;
77729;Laerm;66894;51.570;7.000;2023-02-28T20:58:33;46.64;42.64;53.28;;
77729;Laerm;66894;51.570;7.000;2023-02-28T21:01:14;47.54;43.35;52.95;;
77729;Laerm;66894;51.570;7.000;2023-02-28T21:03:50;47.29;43.96;53.12;;
77729;Laerm;66894;51.570;7.000;2023-02-28T21:06:21;48.13;44.31;54.08;;
77729;Laerm;66894;51.570;7.000;2023-02-28T21:08:48;53.11;43.55;85.18;;
77729;Laerm;66894;51.570;7.000;2023-02-28T21:11:28;49.38;42.98;76.51;;
77729;Laerm;66894;51.570;7.000;2023-02-28T21:13:58;47.61;43.72;52.54;;
77729;Laerm;66894;51.570;7.000;2023-02-28T21:16:26;47.80;43.36;60.19;;
77729;Laerm;66894;51.570;7.000;2023-02-28T21:18:54;48.00;42.04;60.77;;
77729;Laerm;66894;51.570;7.000;2023-02-28T21:21:23;48.37;44.39;53.08;;
77729;Laerm;66894;51.570;7.000;2023-02-28T21:23:50;48.82;43.66;64.60;;
77729;Laerm;66894;51.570;7.000;2023-02-28T21:26:21;48.49;43.66;55.78;;
77729;Laerm;66894;51.570;7.000;2023-02-28T21:28:59;47.05;42.51;52.09;;
77729;Laerm;66894;51.570;7.000;2023-02-28T21:31:29;47.36;42.77;52.51;;
77729;Laerm;66894;51.570;7.000;2023-02-28T21:33:58;47.32;43.77;53.22;;
77729;Laerm;66894;51.570;7.000;2023-02-28T21:36:29;48.26;44.37;54.52;;
77729;Laerm;66894;51.570;7.000;2023-02-28T21:39:03;47.67;43.52;52.24;;
77729;Laerm;66894;51.570;7.000;2023-02-28T21:41:29;46.55;42.24;54.54;;
77729;Laerm;66894;51.570;7.000;2023-02-28T21:43:56;47.36;43.68;54.25;;
77729;Laerm;66894;51.570;7.000;2023-02-28T21:46:27;48.38;44.51;55.57;;
77729;Laerm;66894;51.570;7.000;2023-02-28T21:48:55;48.02;44.02;52.47;;
77729;Laerm;66894;51.570;7.000;2023-02-28T21:51:30;47.90;44.02;58.79;;
77729;Laerm;66894;51.570;7.000;2023-02-28T21:54:00;46.37;40.93;58.41;;
77729;Laerm;66894;51.570;7.000;2023-02-28T21:56:32;45.01;40.42;50.84;;
77729;Laerm;66894;51.570;7.000;2023-02-28T21:59:00;44.82;40.09;50.54;;
77729;Laerm;66894;51.570;7.000;2023-02-28T22:01:34;44.50;39.95;59.46;;
77729;Laerm;66894;51.570;7.000;2023-02-28T22:04:03;44.17;38.52;59.89;;
77729;Laerm;66894;51.570;7.000;2023-02-28T22:06:34;47.85;42.30;53.96;;
77729;Laerm;66894;51.570;7.000;2023-02-28T22:09:05;46.98;41.63;57.58;;
77729;Laerm;66894;51.570;7.000;2023-02-28T22:11:34;46.09;41.59;50.35;;
77729;Laerm;66894;51.570;7.000;2023-02-28T22:14:00;46.47;42.71;50.79;;
77729;Laerm;66894;51.570;7.000;2023-02-28T22:16:30;45.33;41.96;48.92;;
77729;Laerm;66894;51.570;7.000;2023-02-28T22:18:56;43.97;40.45;46.94;;
77729;Laerm;66894;51.570;7.000;2023-02-28T22:21:23;45.41;41.38;48.50;;
77729;Laerm;66894;51.570;7.000;2023-02-28T22:23:49;45.63;41.85;51.13;;
77729;Laerm;66894;51.570;7.000;2023-02-28T22:26:20;44.89;41.87;52.95;;
77729;Laerm;66894;51.570;7.000;2023-02-28T22:28:48;45.71;41.30;54.69;;
77729;Laerm;66894;51.570;7.000;2023-02-28T22:31:35;45.31;42.35;48.74;;
77729;Laerm;66894;51.570;7.000;2023-02-28T22:34:07;46.26;42.48;52.62;;
77729;Laerm;66894;51.570;7.000;2023-02-28T22:36:33;45.29;40.39;53.79;;
77729;Laerm;66894;51.570;7.000;2023-02-28T22:39:00;44.87;41.22;56.10;;
77729;Laerm;66894;51.570;7.000;2023-02-28T22:41:27;44.59;41.52;48.02;;
77729;Laerm;66894;51.570;7.000;2023-02-28T22:44:01;44.81;40.80;49.87;;
77729;Laerm;66894;51.570;7.000;2023-02-28T22:46:31;44.24;40.42;50.41;;
77729;Laerm;66894;51.570;7.000;2023-02-28T22:49:00;44.86;40.95;49.13;;
77729;Laerm;66894;51.570;7.000;2023-02-28T22:51:26;45.46;42.45;49.93;;
77729;Laerm;66894;51.570;7.000;2023-02-28T22:53:55;43.96;40.27;48.01;;
77729;Laerm;66894;51.570;7.000;2023-02-28T22:56:25;44.15;40.42;52.60;;
77729;Laerm;66894;51.570;7.000;2023-02-28T22:58:58;44.48;39.66;53.49;;
77729;Laerm;66894;51.570;7.000;2023-02-28T23:01:29;45.09;41.12;59.16;;
77729;Laerm;66894;51.570;7.000;2023-02-28T23:03:56;45.12;39.63;59.19;;
77729;Laerm;66894;51.570;7.000;2023-02-28T23:06:26;43.20;39.33;48.13;;
77729;Laerm;66894;51.570;7.000;2023-02-28T23:08:58;43.46;39.23;48.66;;
77729;Laerm;66894;51.570;7.000;2023-02-28T23:11:33;44.59;40.37;53.80;;
77729;Laerm;66894;51.570;7.000;2023-02-28T23:14:00;43.22;39.42;48.63;;
77729;Laerm;66894;51.570;7.000;2023-02-28T23:16:36;45.68;39.59;60.61;;
77729;Laerm;66894;51.570;7.000;2023-02-28T23:19:08;43.14;38.84;48.00;;
77729;Laerm;66894;51.570;7.000;2023-02-28T23:21:34;44.08;40.14;48.10;;
77729;Laerm;66894;51.570;7.000;2023-02-28T23:24:04;45.54;42.35;53.66;;
77729;Laerm;66894;51.570;7.000;2023-02-28T23:26:31;45.34;41.74;52.26;;
77729;Laerm;66894;51.570;7.000;2023-02-28T23:28:57;44.56;41.32;47.87;;
77729;Laerm;66894;51.570;7.000;2023-02-28T23:31:23;45.36;41.33;54.68;;
77729;Laerm;66894;51.570;7.000;2023-02-28T23:33:49;43.85;40.29;47.94;;
77729;Laerm;66894;51.570;7.000;2023-02-28T23:36:16;44.55;40.88;49.00;;
77729;Laerm;66894;51.570;7.000;2023-02-28T23:38:47;44.42;40.83;48.71;;
77729;Laerm;66894;51.570;7.000;2023-02-28T23:41:15;44.37;40.18;55.96;;
77729;Laerm;66894;51.570;7.000;2023-02-28T23:43:41;42.71;38.74;47.90;;
77729;Laerm;66894;51.570;7.000;2023-02-28T23:46:09;43.36;39.99;46.94;;
77729;Laerm;66894;51.570;7.000;2023-02-28T23:48:36;43.34;39.96;46.61;;
77729;Laerm;66894;51.570;7.000;2023-02-28T23:51:14;44.80;40.39;56.78;;
77729;Laerm;66894;51.570;7.000;2023-02-28T23:53:46;44.34;40.21;56.70;;
77729;Laerm;66894;51.570;7.000;2023-02-28T23:56:16;43.85;40.48;49.79;;
77729;Laerm;66894;51.570;7.000;2023-02-28T23:58:45;44.12;39.93;48.93;;
